sensor_id;sensor_type;location;lat;lon;timestamp;pressure;altitude;pressure_sealevel;temperature;humidity
70506;BME280;58032;49.820;6.274;2024-03-23T00:55:48;96898.34;;;8.80;100.00
70506;BME280;58032;49.820;6.274;2024-03-23T00:58:14;96888.47;;;8.66;100.00
70506;BME280;58032;49.820;6.274;2024-03-23T01:00:40;96883.47;;;8.70;100.00
70506;BME280;58032;49.820;6.274;2024-03-23T01:03:06;96883.94;;;8.59;100.00
70506;BME280;58032;49.820;6.274;2024-03-23T01:05:32;96891.03;;;8.42;100.00
70506;BME280;58032;49.820;6.274;2024-03-23T01:07:58;96897.22;;;8.36;100.00
70506;BME280;58032;49.820;6.274;2024-03-23T01:10:24;96897.38;;;8.33;100.00
70506;BME280;58032;49.820;6.274;2024-03-23T01:12:50;96898.16;;;8.33;100.00
70506;BME280;58032;49.820;6.274;2024-03-23T01:15:16;96886.66;;;8.40;100.00
70506;BME280;58032;49.820;6.274;2024-03-23T01:17:42;96880.09;;;8.34;100.00
70506;BME280;58032;49.820;6.274;2024-03-23T01:20:09;96875.06;;;8.29;100.00
70506;BME280;58032;49.820;6.274;2024-03-23T01:22:35;96866.66;;;8.29;100.00
70506;BME280;58032;49.820;6.274;2024-03-23T01:25:01;96865.28;;;8.34;100.00
70506;BME280;58032;49.820;6.274;2024-03-23T01:27:27;96870.09;;;8.24;100.00
70506;BME280;58032;49.820;6.274;2024-03-23T01:29:53;96875.16;;;8.16;100.00
70506;BME280;58032;49.820;6.274;2024-03-23T01:32:19;96869.09;;;8.08;100.00
70506;BME280;58032;49.820;6.274;2024-03-23T01:34:45;96882.78;;;8.06;100.00
70506;BME280;58032;49.820;6.274;2024-03-23T01:37:11;96876.16;;;7.91;100.00
70506;BME280;58032;49.820;6.274;2024-03-23T01:39:37;96882.31;;;7.76;100.00
70506;BME280;58032;49.820;6.274;2024-03-23T01:42:04;96896.53;;;7.38;100.00
70506;BME280;58032;49.820;6.274;2024-03-23T01:44:30;96902.16;;;6.90;100.00
70506;BME280;58032;49.820;6.274;2024-03-23T01:46:56;96921.34;;;6.53;100.00
70506;BME280;58032;49.820;6.274;2024-03-23T01:49:22;96904.91;;;6.55;100.00
70506;BME280;58032;49.820;6.274;2024-03-23T01:51:48;96912.06;;;6.30;100.00
70506;BME280;58032;49.820;6.274;2024-03-23T01:54:15;96904.59;;;6.27;100.00
70506;BME280;58032;49.820;6.274;2024-03-23T01:56:41;96915.09;;;6.23;100.00
70506;BME280;58032;49.820;6.274;2024-03-23T01:59:07;96922.47;;;6.16;100.00
70506;BME280;58032;49.820;6.274;2024-03-23T02:01:37;96903.03;;;6.13;100.00
70506;BME280;58032;49.820;6.274;2024-03-23T02:04:03;96895.09;;;6.24;100.00
70506;BME280;58032;49.820;6.274;2024-03-23T02:06:29;96896.56;;;6.16;100.00
70506;BME280;58032;49.820;6.274;2024-03-23T02:08:55;96900.00;;;6.20;100.00
70506;BME280;58032;49.820;6.274;2024-03-23T02:11:22;96895.88;;;6.25;100.00
70506;BME280;58032;49.820;6.274;2024-03-23T02:13:48;96905.03;;;6.25;100.00
70506;BME280;58032;49.820;6.274;2024-03-23T02:16:14;96901.13;;;6.23;100.00
70506;BME280;58032;49.820;6.274;2024-03-23T02:18:40;96908.28;;;6.24;100.00
70506;BME280;58032;49.820;6.274;2024-03-23T02:21:06;96910.41;;;6.20;100.00
70506;BME280;58032;49.820;6.274;2024-03-23T02:23:32;96916.66;;;6.11;100.00
70506;BME280;58032;49.820;6.274;2024-03-23T02:25:58;96916.97;;;6.00;100.00
70506;BME280;58032;49.820;6.274;2024-03-23T02:28:24;96914.31;;;6.09;100.00
70506;BME280;58032;49.820;6.274;2024-03-23T02:30:51;96915.41;;;5.99;100.00
70506;BME280;58032;49.820;6.274;2024-03-23T02:33:17;96910.91;;;5.89;100.00
70506;BME280;58032;49.820;6.274;2024-03-23T02:35:44;96914.81;;;5.91;100.00
70506;BME280;58032;49.820;6.274;2024-03-23T02:38:10;96918.59;;;5.84;100.00
70506;BME280;58032;49.820;6.274;2024-03-23T02:40:36;96927.00;;;5.84;100.00
70506;BME280;58032;49.820;6.274;2024-03-23T02:43:03;96932.03;;;5.90;100.00
70506;BME280;58032;49.820;6.274;2024-03-23T02:45:30;96946.38;;;6.05;100.00
70506;BME280;58032;49.820;6.274;2024-03-23T02:47:56;96944.56;;;5.85;100.00
70506;BME280;58032;49.820;6.274;2024-03-23T02:50:23;96936.84;;;5.89;100.00
70506;BME280;58032;49.820;6.274;2024-03-23T02:52:49;96936.84;;;5.89;100.00
70506;BME280;58032;49.820;6.274;2024-03-23T02:55:15;96942.94;;;6.00;100.00
70506;BME280;58032;49.820;6.274;2024-03-23T02:57:42;96946.19;;;6.12;100.00
70506;BME280;58032;49.820;6.274;2024-03-23T03:00:08;96950.09;;;6.27;100.00
70506;BME280;58032;49.820;6.274;2024-03-23T03:02:35;96944.06;;;6.29;100.00
70506;BME280;58032;49.820;6.274;2024-03-23T03:05:01;96930.88;;;6.42;100.00
70506;BME280;58032;49.820;6.274;2024-03-23T03:07:28;96939.03;;;6.37;100.00
70506;BME280;58032;49.820;6.274;2024-03-23T03:09:54;96919.47;;;6.24;100.00
70506;BME280;58032;49.820;6.274;2024-03-23T03:12:20;96943.53;;;5.92;100.00
70506;BME280;58032;49.820;6.274;2024-03-23T03:14:46;96956.91;;;6.00;100.00
70506;BME280;58032;49.820;6.274;2024-03-23T03:17:12;96956.97;;;5.97;100.00
70506;BME280;58032;49.820;6.274;2024-03-23T03:19:38;96966.56;;;5.83;100.00
70506;BME280;58032;49.820;6.274;2024-03-23T03:22:04;96966.78;;;5.89;100.00
70506;BME280;58032;49.820;6.274;2024-03-23T03:24:30;96976.00;;;5.73;100.00
70506;BME280;58032;49.820;6.274;2024-03-23T03:26:57;96973.16;;;5.60;100.00
70506;BME280;58032;49.820;6.274;2024-03-23T03:29:24;96987.09;;;5.47;100.00
70506;BME280;58032;49.820;6.274;2024-03-23T03:31:50;96976.53;;;5.38;100.00
70506;BME280;58032;49.820;6.274;2024-03-23T03:34:16;96983.84;;;5.48;100.00
70506;BME280;58032;49.820;6.274;2024-03-23T03:36:42;96981.72;;;5.39;100.00
70506;BME280;58032;49.820;6.274;2024-03-23T03:39:08;96984.34;;;5.30;100.00
70506;BME280;58032;49.820;6.274;2024-03-23T03:41:35;96988.44;;;5.26;100.00
70506;BME280;58032;49.820;6.274;2024-03-23T03:44:01;96987.72;;;5.38;100.00
70506;BME280;58032;49.820;6.274;2024-03-23T03:46:28;93594.25;;;-149.55;100.00
70506;BME280;58032;49.820;6.274;2024-03-23T03:48:54;67390.78;;;-149.55;100.00
70506;BME280;58032;49.820;6.274;2024-03-23T03:51:20;67390.78;;;-149.55;100.00
70506;BME280;58032;49.820;6.274;2024-03-23T03:53:46;67390.78;;;-149.55;100.00
70506;BME280;58032;49.820;6.274;2024-03-23T03:56:13;67390.78;;;-149.55;100.00
70506;BME280;58032;49.820;6.274;2024-03-23T03:58:39;67390.78;;;-149.55;100.00
70506;BME280;58032;49.820;6.274;2024-03-23T04:01:06;67390.78;;;-149.55;100.00
70506;BME280;58032;49.820;6.274;2024-03-23T04:03:32;67390.78;;;-149.55;100.00
70506;BME280;58032;49.820;6.274;2024-03-23T04:05:58;67390.78;;;-149.55;100.00
70506;BME280;58032;49.820;6.274;2024-03-23T04:08:24;67390.78;;;-149.55;100.00
70506;BME280;58032;49.820;6.274;2024-03-23T04:10:50;67390.78;;;-149.55;100.00
70506;BME280;58032;49.820;6.274;2024-03-23T04:13:16;67390.78;;;-149.55;100.00
70506;BME280;58032;49.820;6.274;2024-03-23T04:15:42;67390.78;;;-149.55;100.00
70506;BME280;58032;49.820;6.274;2024-03-23T04:18:08;67390.78;;;-149.55;100.00
70506;BME280;58032;49.820;6.274;2024-03-23T04:20:34;67390.78;;;-149.55;100.00
70506;BME280;58032;49.820;6.274;2024-03-23T04:23:00;67390.78;;;-149.55;100.00
70506;BME280;58032;49.820;6.274;2024-03-23T04:25:27;67390.78;;;-149.55;100.00
70506;BME280;58032;49.820;6.274;2024-03-23T04:27:53;67390.78;;;-149.55;100.00
70506;BME280;58032;49.820;6.274;2024-03-23T04:30:19;67390.78;;;-149.55;100.00
70506;BME280;58032;49.820;6.274;2024-03-23T04:32:46;67390.78;;;-149.55;100.00
70506;BME280;58032;49.820;6.274;2024-03-23T04:35:13;67390.78;;;-149.55;100.00
70506;BME280;58032;49.820;6.274;2024-03-23T04:37:39;67390.78;;;-149.55;100.00
70506;BME280;58032;49.820;6.274;2024-03-23T04:40:08;67390.78;;;-149.55;100.00
70506;BME280;58032;49.820;6.274;2024-03-23T04:42:35;67390.78;;;-149.55;100.00
70506;BME280;58032;49.820;6.274;2024-03-23T04:45:01;67390.78;;;-149.55;100.00
70506;BME280;58032;49.820;6.274;2024-03-23T04:47:27;67390.78;;;-149.55;100.00
70506;BME280;58032;49.820;6.274;2024-03-23T04:49:54;67390.78;;;-149.55;100.00
70506;BME280;58032;49.820;6.274;2024-03-23T04:52:21;67390.78;;;-149.55;100.00
70506;BME280;58032;49.820;6.274;2024-03-23T04:54:47;67390.78;;;-149.55;100.00
70506;BME280;58032;49.820;6.274;2024-03-23T04:57:13;67390.78;;;-149.55;100.00
70506;BME280;58032;49.820;6.274;2024-03-23T04:59:46;67390.78;;;-149.55;100.00
70506;BME280;58032;49.820;6.274;2024-03-23T05:02:13;67390.78;;;-149.55;100.00
70506;BME280;58032;49.820;6.274;2024-03-23T05:04:41;67390.78;;;-149.55;100.00
70506;BME280;58032;49.820;6.274;2024-03-23T05:07:08;67390.78;;;-149.55;100.00
70506;BME280;58032;49.820;6.274;2024-03-23T05:09:34;67390.78;;;-149.55;100.00
70506;BME280;58032;49.820;6.274;2024-03-23T05:12:00;67390.78;;;-149.55;100.00
70506;BME280;58032;49.820;6.274;2024-03-23T05:14:26;67390.78;;;-149.55;100.00
70506;BME280;58032;49.820;6.274;2024-03-23T05:16:53;67390.78;;;-149.55;100.00
70506;BME280;58032;49.820;6.274;2024-03-23T05:19:19;67390.78;;;-149.55;100.00
70506;BME280;58032;49.820;6.274;2024-03-23T05:21:45;67390.78;;;-149.55;100.00
70506;BME280;58032;49.820;6.274;2024-03-23T05:24:11;67390.78;;;-149.55;100.00
70506;BME280;58032;49.820;6.274;2024-03-23T05:26:38;96977.28;;;5.26;100.00
70506;BME280;58032;49.820;6.274;2024-03-23T05:29:04;67390.78;;;-149.55;100.00
70506;BME280;58032;49.820;6.274;2024-03-23T05:31:32;67390.78;;;-149.55;100.00
70506;BME280;58032;49.820;6.274;2024-03-23T05:33:58;67390.78;;;-149.55;100.00
70506;BME280;58032;49.820;6.274;2024-03-23T05:36:24;67390.78;;;-149.55;100.00
70506;BME280;58032;49.820;6.274;2024-03-23T05:38:50;67390.78;;;-149.55;100.00
70506;BME280;58032;49.820;6.274;2024-03-23T05:41:16;67390.78;;;-149.55;100.00
70506;BME280;58032;49.820;6.274;2024-03-23T05:43:42;67390.78;;;-149.55;100.00
70506;BME280;58032;49.820;6.274;2024-03-23T05:46:08;67390.78;;;-149.55;100.00
70506;BME280;58032;49.820;6.274;2024-03-23T05:48:34;67390.78;;;-149.55;100.00
70506;BME280;58032;49.820;6.274;2024-03-23T05:51:01;67390.78;;;-149.55;100.00
70506;BME280;58032;49.820;6.274;2024-03-23T05:53:27;67390.78;;;-149.55;100.00
70506;BME280;58032;49.820;6.274;2024-03-23T05:56:03;67390.78;;;-149.55;100.00
70506;BME280;58032;49.820;6.274;2024-03-23T05:58:32;67390.78;;;-149.55;100.00
70506;BME280;58032;49.820;6.274;2024-03-23T06:01:00;67390.78;;;-149.55;100.00
70506;BME280;58032;49.820;6.274;2024-03-23T06:03:28;67390.78;;;-149.55;100.00
70506;BME280;58032;49.820;6.274;2024-03-23T06:05:54;67390.78;;;-149.55;100.00
70506;BME280;58032;49.820;6.274;2024-03-23T06:08:21;67390.78;;;-149.55;100.00
70506;BME280;58032;49.820;6.274;2024-03-23T06:10:47;67390.78;;;-149.55;100.00
70506;BME280;58032;49.820;6.274;2024-03-23T06:13:13;67390.78;;;-149.55;100.00
70506;BME280;58032;49.820;6.274;2024-03-23T06:15:40;67390.78;;;-149.55;100.00
70506;BME280;58032;49.820;6.274;2024-03-23T06:18:06;96977.28;;;5.26;100.00
70506;BME280;58032;49.820;6.274;2024-03-23T06:20:34;97146.31;;;4.53;100.00
70506;BME280;58032;49.820;6.274;2024-03-23T06:23:01;97148.53;;;4.42;100.00
70506;BME280;58032;49.820;6.274;2024-03-23T06:25:27;97144.31;;;4.34;100.00
70506;BME280;58032;49.820;6.274;2024-03-23T06:27:53;97155.47;;;4.34;100.00
70506;BME280;58032;49.820;6.274;2024-03-23T06:30:19;97176.47;;;4.18;100.00
70506;BME280;58032;49.820;6.274;2024-03-23T06:32:45;97168.81;;;4.22;100.00
70506;BME280;58032;49.820;6.274;2024-03-23T06:35:12;97160.91;;;4.41;100.00
70506;BME280;58032;49.820;6.274;2024-03-23T06:37:38;97163.69;;;4.61;100.00
70506;BME280;58032;49.820;6.274;2024-03-23T06:40:07;97158.41;;;4.67;100.00
70506;BME280;58032;49.820;6.274;2024-03-23T06:42:38;97152.69;;;4.54;100.00
70506;BME280;58032;49.820;6.274;2024-03-23T06:45:05;97162.34;;;4.49;100.00
70506;BME280;58032;49.820;6.274;2024-03-23T06:47:31;97173.28;;;4.60;100.00
70506;BME280;58032;49.820;6.274;2024-03-23T06:49:59;97170.34;;;4.47;100.00
70506;BME280;58032;49.820;6.274;2024-03-23T06:52:28;97184.56;;;4.33;100.00
70506;BME280;58032;49.820;6.274;2024-03-23T06:54:54;97173.56;;;4.66;100.00
70506;BME280;58032;49.820;6.274;2024-03-23T06:57:20;97181.56;;;4.84;100.00
70506;BME280;58032;49.820;6.274;2024-03-23T06:59:46;97185.56;;;4.83;100.00
70506;BME280;58032;49.820;6.274;2024-03-23T07:02:12;97185.03;;;4.88;100.00
70506;BME280;58032;49.820;6.274;2024-03-23T07:04:38;97184.09;;;4.95;100.00
70506;BME280;58032;49.820;6.274;2024-03-23T07:07:05;97189.00;;;4.70;100.00
70506;BME280;58032;49.820;6.274;2024-03-23T07:09:31;97202.72;;;4.61;100.00
70506;BME280;58032;49.820;6.274;2024-03-23T07:11:57;97196.34;;;4.60;100.00
70506;BME280;58032;49.820;6.274;2024-03-23T07:14:24;97199.78;;;4.88;100.00
70506;BME280;58032;49.820;6.274;2024-03-23T07:16:50;97197.34;;;4.90;100.00
70506;BME280;58032;49.820;6.274;2024-03-23T07:19:17;97208.09;;;4.92;100.00
70506;BME280;58032;49.820;6.274;2024-03-23T07:21:44;97205.28;;;4.92;100.00
70506;BME280;58032;49.820;6.274;2024-03-23T07:24:10;97204.25;;;5.02;100.00
70506;BME280;58032;49.820;6.274;2024-03-23T07:26:37;97202.31;;;5.19;100.00
70506;BME280;58032;49.820;6.274;2024-03-23T07:29:04;97198.22;;;5.24;100.00
70506;BME280;58032;49.820;6.274;2024-03-23T07:31:30;97205.59;;;5.51;100.00
70506;BME280;58032;49.820;6.274;2024-03-23T07:33:56;97202.03;;;5.50;100.00
70506;BME280;58032;49.820;6.274;2024-03-23T07:36:22;97208.09;;;5.45;100.00
70506;BME280;58032;49.820;6.274;2024-03-23T07:38:48;97200.38;;;5.69;100.00
70506;BME280;58032;49.820;6.274;2024-03-23T07:41:16;97205.78;;;5.77;100.00
70506;BME280;58032;49.820;6.274;2024-03-23T07:43:46;97201.16;;;5.86;100.00
70506;BME280;58032;49.820;6.274;2024-03-23T07:46:12;97199.94;;;6.21;100.00
70506;BME280;58032;49.820;6.274;2024-03-23T07:48:39;97212.34;;;6.03;100.00
70506;BME280;58032;49.820;6.274;2024-03-23T07:51:10;97209.00;;;6.25;100.00
70506;BME280;58032;49.820;6.274;2024-03-23T07:53:37;97206.47;;;6.14;100.00
70506;BME280;58032;49.820;6.274;2024-03-23T07:56:07;97212.53;;;6.42;100.00
70506;BME280;58032;49.820;6.274;2024-03-23T07:58:34;97215.78;;;7.12;100.00
70506;BME280;58032;49.820;6.274;2024-03-23T08:01:05;97212.44;;;7.30;100.00
70506;BME280;58032;49.820;6.274;2024-03-23T08:03:34;97212.06;;;7.02;100.00
70506;BME280;58032;49.820;6.274;2024-03-23T08:06:27;97205.16;;;7.45;100.00
70506;BME280;58032;49.820;6.274;2024-03-23T08:08:57;97210.56;;;6.85;100.00
70506;BME280;58032;49.820;6.274;2024-03-23T08:11:27;97213.13;;;7.34;100.00
70506;BME280;58032;49.820;6.274;2024-03-23T08:13:53;97213.09;;;7.21;100.00
70506;BME280;58032;49.820;6.274;2024-03-23T08:16:19;97213.09;;;7.21;100.00
70506;BME280;58032;49.820;6.274;2024-03-23T08:18:45;97224.50;;;7.01;100.00
70506;BME280;58032;49.820;6.274;2024-03-23T08:21:11;97219.22;;;6.90;100.00
70506;BME280;58032;49.820;6.274;2024-03-23T08:23:37;97224.91;;;6.87;100.00
70506;BME280;58032;49.820;6.274;2024-03-23T08:26:09;97229.47;;;7.36;100.00
70506;BME280;58032;49.820;6.274;2024-03-23T08:28:35;97236.97;;;7.26;100.00
70506;BME280;58032;49.820;6.274;2024-03-23T08:31:03;97233.75;;;6.98;100.00
70506;BME280;58032;49.820;6.274;2024-03-23T08:33:31;97232.81;;;7.43;100.00
70506;BME280;58032;49.820;6.274;2024-03-23T08:35:59;97229.50;;;7.62;100.00
70506;BME280;58032;49.820;6.274;2024-03-23T08:38:26;97231.34;;;7.13;100.00
70506;BME280;58032;49.820;6.274;2024-03-23T08:41:09;97227.06;;;7.08;100.00
70506;BME280;58032;49.820;6.274;2024-03-23T08:43:37;97221.94;;;7.97;100.00
70506;BME280;58032;49.820;6.274;2024-03-23T08:46:14;67390.78;;;-149.55;100.00
70506;BME280;58032;49.820;6.274;2024-03-23T08:48:45;67390.78;;;-149.55;100.00
70506;BME280;58032;49.820;6.274;2024-03-23T08:51:13;67390.78;;;-149.55;100.00
70506;BME280;58032;49.820;6.274;2024-03-23T08:53:40;67390.78;;;-149.55;100.00
70506;BME280;58032;49.820;6.274;2024-03-23T08:56:07;67390.78;;;-149.55;100.00
70506;BME280;58032;49.820;6.274;2024-03-23T08:58:34;67390.78;;;-149.55;100.00
70506;BME280;58032;49.820;6.274;2024-03-23T09:01:08;67390.78;;;-149.55;100.00
70506;BME280;58032;49.820;6.274;2024-03-23T09:03:35;67390.78;;;-149.55;100.00
70506;BME280;58032;49.820;6.274;2024-03-23T09:06:06;67390.78;;;-149.55;100.00
70506;BME280;58032;49.820;6.274;2024-03-23T09:08:33;67390.78;;;-149.55;100.00
70506;BME280;58032;49.820;6.274;2024-03-23T09:11:04;67390.78;;;-149.55;100.00
70506;BME280;58032;49.820;6.274;2024-03-23T09:13:35;67390.78;;;-149.55;100.00
70506;BME280;58032;49.820;6.274;2024-03-23T09:16:02;67390.78;;;-149.55;100.00
70506;BME280;58032;49.820;6.274;2024-03-23T09:18:31;67390.78;;;-149.55;100.00
70506;BME280;58032;49.820;6.274;2024-03-23T09:20:58;67390.78;;;-149.55;100.00
70506;BME280;58032;49.820;6.274;2024-03-23T09:23:24;67390.78;;;-149.55;100.00
70506;BME280;58032;49.820;6.274;2024-03-23T09:25:50;67390.78;;;-149.55;100.00
70506;BME280;58032;49.820;6.274;2024-03-23T09:28:16;67390.78;;;-149.55;100.00
70506;BME280;58032;49.820;6.274;2024-03-23T09:30:42;67390.78;;;-149.55;100.00
70506;BME280;58032;49.820;6.274;2024-03-23T09:33:09;67390.78;;;-149.55;100.00
70506;BME280;58032;49.820;6.274;2024-03-23T09:35:43;67390.78;;;-149.55;100.00
70506;BME280;58032;49.820;6.274;2024-03-23T09:38:10;67390.78;;;-149.55;100.00
70506;BME280;58032;49.820;6.274;2024-03-23T09:40:43;67390.78;;;-149.55;100.00
70506;BME280;58032;49.820;6.274;2024-03-23T09:43:09;67390.78;;;-149.55;100.00
70506;BME280;58032;49.820;6.274;2024-03-23T09:45:38;67390.78;;;-149.55;100.00
70506;BME280;58032;49.820;6.274;2024-03-23T09:48:06;67390.78;;;-149.55;100.00
70506;BME280;58032;49.820;6.274;2024-03-23T09:50:32;67390.78;;;-149.55;100.00
70506;BME280;58032;49.820;6.274;2024-03-23T09:52:58;67390.78;;;-149.55;100.00
70506;BME280;58032;49.820;6.274;2024-03-23T09:55:24;67390.78;;;-149.55;100.00
70506;BME280;58032;49.820;6.274;2024-03-23T09:57:50;67390.78;;;-149.55;100.00
70506;BME280;58032;49.820;6.274;2024-03-23T10:00:16;67390.78;;;-149.55;100.00
70506;BME280;58032;49.820;6.274;2024-03-23T10:02:43;67390.78;;;-149.55;100.00
70506;BME280;58032;49.820;6.274;2024-03-23T10:05:22;67390.78;;;-149.55;100.00
70506;BME280;58032;49.820;6.274;2024-03-23T10:07:52;67390.78;;;-149.55;100.00
70506;BME280;58032;49.820;6.274;2024-03-23T10:10:18;67390.78;;;-149.55;100.00
70506;BME280;58032;49.820;6.274;2024-03-23T10:12:49;67390.78;;;-149.55;100.00
70506;BME280;58032;49.820;6.274;2024-03-23T10:15:24;67390.78;;;-149.55;100.00
70506;BME280;58032;49.820;6.274;2024-03-23T10:17:52;67390.78;;;-149.55;100.00
70506;BME280;58032;49.820;6.274;2024-03-23T10:20:22;67390.78;;;-149.55;100.00
70506;BME280;58032;49.820;6.274;2024-03-23T10:22:49;97232.88;;;5.06;100.00
70506;BME280;58032;49.820;6.274;2024-03-23T10:25:16;97265.44;;;4.29;100.00
70506;BME280;58032;49.820;6.274;2024-03-23T10:27:42;67390.78;;;-149.55;100.00
70506;BME280;58032;49.820;6.274;2024-03-23T10:30:13;67390.78;;;-149.55;100.00
70506;BME280;58032;49.820;6.274;2024-03-23T10:32:43;67390.78;;;-149.55;100.00
70506;BME280;58032;49.820;6.274;2024-03-23T10:37:42;67390.78;;;-149.55;100.00
70506;BME280;58032;49.820;6.274;2024-03-23T10:40:10;97265.44;;;4.29;100.00
70506;BME280;58032;49.820;6.274;2024-03-23T10:42:37;97285.91;;;4.42;100.00
70506;BME280;58032;49.820;6.274;2024-03-23T10:45:04;97275.78;;;5.33;100.00
70506;BME280;58032;49.820;6.274;2024-03-23T10:47:32;97270.41;;;5.42;100.00
70506;BME280;58032;49.820;6.274;2024-03-23T10:50:01;97259.13;;;5.66;100.00
70506;BME280;58032;49.820;6.274;2024-03-23T10:52:27;97261.03;;;5.85;100.00
70506;BME280;58032;49.820;6.274;2024-03-23T10:54:55;97257.88;;;5.50;100.00
70506;BME280;58032;49.820;6.274;2024-03-23T10:57:29;97263.56;;;5.80;100.00
70506;BME280;58032;49.820;6.274;2024-03-23T10:59:57;97264.69;;;5.82;100.00
70506;BME280;58032;49.820;6.274;2024-03-23T11:02:25;97256.41;;;5.79;100.00
70506;BME280;58032;49.820;6.274;2024-03-23T11:04:52;97248.38;;;5.81;100.00
70506;BME280;58032;49.820;6.274;2024-03-23T11:07:28;97244.81;;;5.80;100.00
70506;BME280;58032;49.820;6.274;2024-03-23T11:09:55;97239.56;;;5.82;100.00
70506;BME280;58032;49.820;6.274;2024-03-23T11:15:34;97241.16;;;6.16;100.00
70506;BME280;58032;49.820;6.274;2024-03-23T11:17:35;97239.28;;;6.43;100.00
70506;BME280;58032;49.820;6.274;2024-03-23T11:20:05;97234.31;;;6.63;100.00
70506;BME280;58032;49.820;6.274;2024-03-23T11:25:22;67390.78;;;-149.55;100.00
70506;BME280;58032;49.820;6.274;2024-03-23T11:28:09;67390.78;;;-149.55;100.00
70506;BME280;58032;49.820;6.274;2024-03-23T11:30:37;67390.78;;;-149.55;100.00
70506;BME280;58032;49.820;6.274;2024-03-23T11:33:06;67390.78;;;-149.55;100.00
70506;BME280;58032;49.820;6.274;2024-03-23T11:35:40;67390.78;;;-149.55;100.00
70506;BME280;58032;49.820;6.274;2024-03-23T11:40:41;67390.78;;;-149.55;100.00
70506;BME280;58032;49.820;6.274;2024-03-23T11:43:08;67390.78;;;-149.55;100.00
70506;BME280;58032;49.820;6.274;2024-03-23T11:45:40;67390.78;;;-149.55;100.00
70506;BME280;58032;49.820;6.274;2024-03-23T11:48:09;67390.78;;;-149.55;100.00
70506;BME280;58032;49.820;6.274;2024-03-23T11:50:43;67390.78;;;-149.55;100.00
70506;BME280;58032;49.820;6.274;2024-03-23T11:53:23;67390.78;;;-149.55;100.00
70506;BME280;58032;49.820;6.274;2024-03-23T11:55:53;67390.78;;;-149.55;100.00
70506;BME280;58032;49.820;6.274;2024-03-23T11:58:21;67390.78;;;-149.55;100.00
70506;BME280;58032;49.820;6.274;2024-03-23T12:01:03;67390.78;;;-149.55;100.00
70506;BME280;58032;49.820;6.274;2024-03-23T12:03:31;67390.78;;;-149.55;100.00
70506;BME280;58032;49.820;6.274;2024-03-23T12:06:02;67390.78;;;-149.55;100.00
70506;BME280;58032;49.820;6.274;2024-03-23T12:08:33;67390.78;;;-149.55;100.00
70506;BME280;58032;49.820;6.274;2024-03-23T12:11:08;67390.78;;;-149.55;100.00
70506;BME280;58032;49.820;6.274;2024-03-23T12:13:35;67390.78;;;-149.55;100.00
70506;BME280;58032;49.820;6.274;2024-03-23T12:18:37;67390.78;;;-149.55;100.00
70506;BME280;58032;49.820;6.274;2024-03-23T12:21:04;67390.78;;;-149.55;100.00
70506;BME280;58032;49.820;6.274;2024-03-23T12:23:30;67390.78;;;-149.55;100.00
70506;BME280;58032;49.820;6.274;2024-03-23T12:25:56;67390.78;;;-149.55;100.00
70506;BME280;58032;49.820;6.274;2024-03-23T12:28:22;67390.78;;;-149.55;100.00
70506;BME280;58032;49.820;6.274;2024-03-23T12:30:48;67390.78;;;-149.55;100.00
70506;BME280;58032;49.820;6.274;2024-03-23T12:33:14;67390.78;;;-149.55;100.00
70506;BME280;58032;49.820;6.274;2024-03-23T12:35:40;67390.78;;;-149.55;100.00
70506;BME280;58032;49.820;6.274;2024-03-23T12:38:06;67390.78;;;-149.55;100.00
70506;BME280;58032;49.820;6.274;2024-03-23T12:40:33;67390.78;;;-149.55;100.00
70506;BME280;58032;49.820;6.274;2024-03-23T12:42:59;67390.78;;;-149.55;100.00
70506;BME280;58032;49.820;6.274;2024-03-23T12:45:25;67390.78;;;-149.55;100.00
70506;BME280;58032;49.820;6.274;2024-03-23T12:47:51;67390.78;;;-149.55;100.00
70506;BME280;58032;49.820;6.274;2024-03-23T12:50:20;67390.78;;;-149.55;100.00
70506;BME280;58032;49.820;6.274;2024-03-23T12:52:46;67390.78;;;-149.55;100.00
70506;BME280;58032;49.820;6.274;2024-03-23T12:55:12;67390.78;;;-149.55;100.00
70506;BME280;58032;49.820;6.274;2024-03-23T12:57:39;67390.78;;;-149.55;100.00
70506;BME280;58032;49.820;6.274;2024-03-23T13:00:06;67390.78;;;-149.55;100.00
70506;BME280;58032;49.820;6.274;2024-03-23T13:02:35;67390.78;;;-149.55;100.00
70506;BME280;58032;49.820;6.274;2024-03-23T13:05:01;67390.78;;;-149.55;100.00
70506;BME280;58032;49.820;6.274;2024-03-23T13:07:28;67390.78;;;-149.55;100.00
70506;BME280;58032;49.820;6.274;2024-03-23T13:09:54;67390.78;;;-149.55;100.00
70506;BME280;58032;49.820;6.274;2024-03-23T13:12:22;67390.78;;;-149.55;100.00
70506;BME280;58032;49.820;6.274;2024-03-23T13:14:49;67390.78;;;-149.55;100.00
70506;BME280;58032;49.820;6.274;2024-03-23T13:17:15;67390.78;;;-149.55;100.00
70506;BME280;58032;49.820;6.274;2024-03-23T13:19:41;67390.78;;;-149.55;100.00
70506;BME280;58032;49.820;6.274;2024-03-23T13:22:07;67390.78;;;-149.55;100.00
70506;BME280;58032;49.820;6.274;2024-03-23T13:24:34;67390.78;;;-149.55;100.00
70506;BME280;58032;49.820;6.274;2024-03-23T13:27:00;67390.78;;;-149.55;100.00
70506;BME280;58032;49.820;6.274;2024-03-23T13:29:26;67390.78;;;-149.55;100.00
70506;BME280;58032;49.820;6.274;2024-03-23T13:31:52;67390.78;;;-149.55;100.00
70506;BME280;58032;49.820;6.274;2024-03-23T13:34:19;67390.78;;;-149.55;100.00
70506;BME280;58032;49.820;6.274;2024-03-23T13:36:46;67390.78;;;-149.55;100.00
70506;BME280;58032;49.820;6.274;2024-03-23T13:39:14;67390.78;;;-149.55;100.00
70506;BME280;58032;49.820;6.274;2024-03-23T13:41:42;67390.78;;;-149.55;100.00
70506;BME280;58032;49.820;6.274;2024-03-23T13:44:10;67390.78;;;-149.55;100.00
70506;BME280;58032;49.820;6.274;2024-03-23T13:46:37;67390.78;;;-149.55;100.00
70506;BME280;58032;49.820;6.274;2024-03-23T13:49:04;67390.78;;;-149.55;100.00
70506;BME280;58032;49.820;6.274;2024-03-23T13:51:30;67390.78;;;-149.55;100.00
70506;BME280;58032;49.820;6.274;2024-03-23T13:53:57;67390.78;;;-149.55;100.00